sensor_id;sensor_type;location;lat;lon;timestamp;P1;durP1;ratioP1;P2;durP2;ratioP2
55718;SDS011;41623;46.104;19.656;2022-10-16T00:01:08;4.97;;;1.95;;
55718;SDS011;41623;46.104;19.656;2022-10-16T00:03:36;2.70;;;1.85;;
55718;SDS011;41623;46.104;19.656;2022-10-16T00:06:02;3.53;;;2.45;;
55718;SDS011;41623;46.104;19.656;2022-10-16T00:08:28;4.20;;;2.75;;
55718;SDS011;41623;46.104;19.656;2022-10-16T00:10:58;4.35;;;2.83;;
55718;SDS011;41623;46.104;19.656;2022-10-16T00:13:24;3.55;;;2.05;;
55718;SDS011;41623;46.104;19.656;2022-10-16T00:15:51;3.60;;;2.17;;
55718;SDS011;41623;46.104;19.656;2022-10-16T00:18:21;4.18;;;2.20;;
55718;SDS011;41623;46.104;19.656;2022-10-16T00:20:47;2.75;;;2.05;;
55718;SDS011;41623;46.104;19.656;2022-10-16T00:23:13;4.45;;;2.00;;
55718;SDS011;41623;46.104;19.656;2022-10-16T00:25:39;2.08;;;1.50;;
55718;SDS011;41623;46.104;19.656;2022-10-16T00:28:05;6.85;;;2.05;;
55718;SDS011;41623;46.104;19.656;2022-10-16T00:30:31;3.35;;;1.70;;
55718;SDS011;41623;46.104;19.656;2022-10-16T00:32:57;3.40;;;1.98;;
55718;SDS011;41623;46.104;19.656;2022-10-16T00:35:25;6.50;;;2.60;;
55718;SDS011;41623;46.104;19.656;2022-10-16T00:37:52;3.58;;;1.95;;
55718;SDS011;41623;46.104;19.656;2022-10-16T00:40:18;4.82;;;2.65;;
55718;SDS011;41623;46.104;19.656;2022-10-16T00:42:44;3.78;;;2.28;;
55718;SDS011;41623;46.104;19.656;2022-10-16T00:45:11;2.53;;;1.92;;
55718;SDS011;41623;46.104;19.656;2022-10-16T00:47:39;12.27;;;2.63;;
55718;SDS011;41623;46.104;19.656;2022-10-16T00:50:11;3.90;;;2.50;;
55718;SDS011;41623;46.104;19.656;2022-10-16T00:52:39;2.78;;;1.83;;
55718;SDS011;41623;46.104;19.656;2022-10-16T00:55:09;4.13;;;2.75;;
55718;SDS011;41623;46.104;19.656;2022-10-16T00:57:35;4.60;;;2.25;;
55718;SDS011;41623;46.104;19.656;2022-10-16T01:00:03;3.28;;;2.25;;
55718;SDS011;41623;46.104;19.656;2022-10-16T01:02:30;3.17;;;2.00;;
55718;SDS011;41623;46.104;19.656;2022-10-16T01:04:56;3.15;;;2.00;;
55718;SDS011;41623;46.104;19.656;2022-10-16T01:10:02;3.67;;;2.15;;
55718;SDS011;41623;46.104;19.656;2022-10-16T01:22:59;3.75;;;2.25;;
55718;SDS011;41623;46.104;19.656;2022-10-16T01:25:39;3.35;;;2.22;;
55718;SDS011;41623;46.104;19.656;2022-10-16T01:28:12;3.85;;;2.05;;
55718;SDS011;41623;46.104;19.656;2022-10-16T01:30:41;4.38;;;2.65;;
55718;SDS011;41623;46.104;19.656;2022-10-16T01:33:19;4.63;;;2.33;;
55718;SDS011;41623;46.104;19.656;2022-10-16T01:35:47;4.63;;;2.67;;
55718;SDS011;41623;46.104;19.656;2022-10-16T01:41:00;3.97;;;2.08;;
55718;SDS011;41623;46.104;19.656;2022-10-16T01:43:28;4.13;;;2.28;;
55718;SDS011;41623;46.104;19.656;2022-10-16T01:46:01;4.38;;;2.60;;
55718;SDS011;41623;46.104;19.656;2022-10-16T01:48:27;3.03;;;2.08;;
55718;SDS011;41623;46.104;19.656;2022-10-16T01:51:08;3.63;;;2.47;;
55718;SDS011;41623;46.104;19.656;2022-10-16T01:53:37;8.38;;;2.83;;
55718;SDS011;41623;46.104;19.656;2022-10-16T01:56:05;4.00;;;2.22;;
55718;SDS011;41623;46.104;19.656;2022-10-16T01:58:37;4.55;;;2.90;;
55718;SDS011;41623;46.104;19.656;2022-10-16T02:01:07;5.32;;;2.20;;
55718;SDS011;41623;46.104;19.656;2022-10-16T02:03:36;4.00;;;2.05;;
55718;SDS011;41623;46.104;19.656;2022-10-16T02:06:06;4.03;;;2.70;;
55718;SDS011;41623;46.104;19.656;2022-10-16T02:08:32;3.38;;;2.20;;
55718;SDS011;41623;46.104;19.656;2022-10-16T02:10:58;3.40;;;2.30;;
55718;SDS011;41623;46.104;19.656;2022-10-16T02:13:28;3.90;;;2.17;;
55718;SDS011;41623;46.104;19.656;2022-10-16T02:15:55;8.60;;;2.38;;
55718;SDS011;41623;46.104;19.656;2022-10-16T02:18:21;4.40;;;2.72;;
55718;SDS011;41623;46.104;19.656;2022-10-16T02:20:51;3.92;;;2.38;;
55718;SDS011;41623;46.104;19.656;2022-10-16T02:26:25;4.72;;;2.03;;
55718;SDS011;41623;46.104;19.656;2022-10-16T02:29:01;4.55;;;2.15;;
55718;SDS011;41623;46.104;19.656;2022-10-16T02:31:32;4.80;;;2.05;;
55718;SDS011;41623;46.104;19.656;2022-10-16T02:34:00;4.72;;;2.58;;
55718;SDS011;41623;46.104;19.656;2022-10-16T02:36:30;2.78;;;2.00;;
55718;SDS011;41623;46.104;19.656;2022-10-16T02:38:57;6.97;;;2.50;;
55718;SDS011;41623;46.104;19.656;2022-10-16T02:41:26;2.85;;;2.22;;
55718;SDS011;41623;46.104;19.656;2022-10-16T02:43:52;4.45;;;2.33;;
55718;SDS011;41623;46.104;19.656;2022-10-16T02:46:20;4.68;;;2.83;;
55718;SDS011;41623;46.104;19.656;2022-10-16T02:48:46;3.92;;;2.15;;
55718;SDS011;41623;46.104;19.656;2022-10-16T02:51:12;5.03;;;2.50;;
55718;SDS011;41623;46.104;19.656;2022-10-16T02:53:38;3.05;;;1.98;;
55718;SDS011;41623;46.104;19.656;2022-10-16T02:56:03;4.13;;;2.20;;
55718;SDS011;41623;46.104;19.656;2022-10-16T02:58:29;3.67;;;2.20;;
55718;SDS011;41623;46.104;19.656;2022-10-16T03:00:55;3.78;;;2.55;;
55718;SDS011;41623;46.104;19.656;2022-10-16T03:03:21;2.33;;;1.95;;
55718;SDS011;41623;46.104;19.656;2022-10-16T03:05:47;1.73;;;1.55;;
55718;SDS011;41623;46.104;19.656;2022-10-16T03:08:13;5.25;;;2.55;;
55718;SDS011;41623;46.104;19.656;2022-10-16T03:10:40;2.70;;;1.95;;
55718;SDS011;41623;46.104;19.656;2022-10-16T03:13:06;3.88;;;2.20;;
55718;SDS011;41623;46.104;19.656;2022-10-16T03:15:32;8.15;;;2.03;;
55718;SDS011;41623;46.104;19.656;2022-10-16T03:17:58;3.33;;;2.35;;
55718;SDS011;41623;46.104;19.656;2022-10-16T03:20:24;3.17;;;1.90;;
55718;SDS011;41623;46.104;19.656;2022-10-16T03:22:50;3.17;;;2.22;;
55718;SDS011;41623;46.104;19.656;2022-10-16T03:25:16;5.55;;;2.83;;
55718;SDS011;41623;46.104;19.656;2022-10-16T03:27:42;4.43;;;2.75;;
55718;SDS011;41623;46.104;19.656;2022-10-16T03:30:07;3.15;;;2.20;;
55718;SDS011;41623;46.104;19.656;2022-10-16T03:32:34;5.32;;;2.95;;
55718;SDS011;41623;46.104;19.656;2022-10-16T03:34:59;3.42;;;2.50;;
55718;SDS011;41623;46.104;19.656;2022-10-16T03:37:25;8.07;;;2.85;;
55718;SDS011;41623;46.104;19.656;2022-10-16T03:39:51;3.42;;;2.20;;
55718;SDS011;41623;46.104;19.656;2022-10-16T03:42:17;3.60;;;2.45;;
55718;SDS011;41623;46.104;19.656;2022-10-16T03:44:43;3.10;;;2.15;;
55718;SDS011;41623;46.104;19.656;2022-10-16T03:47:09;3.90;;;2.63;;
55718;SDS011;41623;46.104;19.656;2022-10-16T03:49:37;5.57;;;2.22;;
55718;SDS011;41623;46.104;19.656;2022-10-16T03:52:03;4.40;;;2.45;;
55718;SDS011;41623;46.104;19.656;2022-10-16T03:54:31;4.40;;;2.17;;
55718;SDS011;41623;46.104;19.656;2022-10-16T03:56:57;6.35;;;2.65;;
55718;SDS011;41623;46.104;19.656;2022-10-16T03:59:22;1.75;;;1.50;;
55718;SDS011;41623;46.104;19.656;2022-10-16T04:01:48;2.03;;;1.60;;
55718;SDS011;41623;46.104;19.656;2022-10-16T04:04:14;3.53;;;2.22;;
55718;SDS011;41623;46.104;19.656;2022-10-16T04:06:39;2.80;;;2.05;;
55718;SDS011;41623;46.104;19.656;2022-10-16T04:09:05;3.50;;;2.15;;
55718;SDS011;41623;46.104;19.656;2022-10-16T04:11:31;3.95;;;2.75;;
55718;SDS011;41623;46.104;19.656;2022-10-16T04:13:57;2.78;;;2.00;;
55718;SDS011;41623;46.104;19.656;2022-10-16T04:16:22;4.75;;;2.80;;
55718;SDS011;41623;46.104;19.656;2022-10-16T04:18:48;2.42;;;1.88;;
55718;SDS011;41623;46.104;19.656;2022-10-16T04:21:14;2.78;;;2.15;;
55718;SDS011;41623;46.104;19.656;2022-10-16T04:23:39;3.08;;;2.15;;
55718;SDS011;41623;46.104;19.656;2022-10-16T04:26:06;3.30;;;2.17;;
55718;SDS011;41623;46.104;19.656;2022-10-16T04:28:32;3.08;;;1.80;;
55718;SDS011;41623;46.104;19.656;2022-10-16T04:30:58;3.17;;;2.33;;
55718;SDS011;41623;46.104;19.656;2022-10-16T04:33:23;3.50;;;2.00;;
55718;SDS011;41623;46.104;19.656;2022-10-16T04:35:55;4.32;;;2.25;;
55718;SDS011;41623;46.104;19.656;2022-10-16T04:38:22;5.22;;;2.40;;
55718;SDS011;41623;46.104;19.656;2022-10-16T04:40:48;4.57;;;2.10;;
55718;SDS011;41623;46.104;19.656;2022-10-16T04:43:13;5.47;;;2.65;;
55718;SDS011;41623;46.104;19.656;2022-10-16T04:45:39;4.03;;;2.42;;
55718;SDS011;41623;46.104;19.656;2022-10-16T04:48:05;4.22;;;2.38;;
55718;SDS011;41623;46.104;19.656;2022-10-16T04:50:30;3.00;;;1.95;;
55718;SDS011;41623;46.104;19.656;2022-10-16T04:52:56;4.20;;;2.70;;
55718;SDS011;41623;46.104;19.656;2022-10-16T04:55:22;3.42;;;2.03;;
55718;SDS011;41623;46.104;19.656;2022-10-16T04:57:48;4.18;;;2.10;;
55718;SDS011;41623;46.104;19.656;2022-10-16T05:00:13;9.38;;;2.22;;
55718;SDS011;41623;46.104;19.656;2022-10-16T05:02:39;3.13;;;2.10;;
55718;SDS011;41623;46.104;19.656;2022-10-16T05:05:05;6.07;;;2.13;;
55718;SDS011;41623;46.104;19.656;2022-10-16T05:07:31;3.55;;;2.47;;
55718;SDS011;41623;46.104;19.656;2022-10-16T05:09:56;5.53;;;2.85;;
55718;SDS011;41623;46.104;19.656;2022-10-16T05:12:22;4.05;;;2.17;;
55718;SDS011;41623;46.104;19.656;2022-10-16T05:14:48;3.25;;;2.00;;
55718;SDS011;41623;46.104;19.656;2022-10-16T05:17:14;2.83;;;1.95;;
55718;SDS011;41623;46.104;19.656;2022-10-16T05:19:40;3.70;;;2.40;;
55718;SDS011;41623;46.104;19.656;2022-10-16T05:22:05;4.45;;;2.42;;
55718;SDS011;41623;46.104;19.656;2022-10-16T05:24:31;3.47;;;2.30;;
55718;SDS011;41623;46.104;19.656;2022-10-16T05:26:57;2.60;;;1.95;;
55718;SDS011;41623;46.104;19.656;2022-10-16T05:29:23;5.57;;;2.03;;
55718;SDS011;41623;46.104;19.656;2022-10-16T05:31:52;7.53;;;2.63;;
55718;SDS011;41623;46.104;19.656;2022-10-16T05:34:18;6.05;;;2.70;;
55718;SDS011;41623;46.104;19.656;2022-10-16T05:36:44;2.25;;;1.58;;
55718;SDS011;41623;46.104;19.656;2022-10-16T05:39:10;3.70;;;2.28;;
55718;SDS011;41623;46.104;19.656;2022-10-16T05:41:38;3.17;;;2.15;;
55718;SDS011;41623;46.104;19.656;2022-10-16T05:44:04;3.17;;;2.20;;
55718;SDS011;41623;46.104;19.656;2022-10-16T05:46:31;2.90;;;2.38;;
55718;SDS011;41623;46.104;19.656;2022-10-16T05:48:57;5.95;;;2.70;;
55718;SDS011;41623;46.104;19.656;2022-10-16T05:51:23;6.28;;;2.00;;
55718;SDS011;41623;46.104;19.656;2022-10-16T05:53:48;3.70;;;2.13;;
55718;SDS011;41623;46.104;19.656;2022-10-16T05:56:14;2.70;;;2.17;;
55718;SDS011;41623;46.104;19.656;2022-10-16T05:58:40;4.03;;;2.20;;
55718;SDS011;41623;46.104;19.656;2022-10-16T06:01:16;2.92;;;2.15;;
55718;SDS011;41623;46.104;19.656;2022-10-16T06:03:43;4.38;;;2.35;;
55718;SDS011;41623;46.104;19.656;2022-10-16T06:08:34;3.65;;;2.20;;
55718;SDS011;41623;46.104;19.656;2022-10-16T06:11:04;5.43;;;2.63;;
55718;SDS011;41623;46.104;19.656;2022-10-16T06:13:30;4.53;;;2.75;;
55718;SDS011;41623;46.104;19.656;2022-10-16T06:15:59;3.20;;;2.22;;
55718;SDS011;41623;46.104;19.656;2022-10-16T06:18:26;3.30;;;1.77;;
55718;SDS011;41623;46.104;19.656;2022-10-16T06:20:53;2.13;;;1.92;;
55718;SDS011;41623;46.104;19.656;2022-10-16T06:23:19;9.02;;;2.30;;
55718;SDS011;41623;46.104;19.656;2022-10-16T06:25:45;4.20;;;2.45;;
55718;SDS011;41623;46.104;19.656;2022-10-16T06:28:11;4.22;;;2.45;;
55718;SDS011;41623;46.104;19.656;2022-10-16T06:30:38;2.92;;;1.73;;
55718;SDS011;41623;46.104;19.656;2022-10-16T06:33:04;1.92;;;1.55;;
55718;SDS011;41623;46.104;19.656;2022-10-16T06:35:29;4.10;;;2.55;;
55718;SDS011;41623;46.104;19.656;2022-10-16T06:37:56;4.95;;;2.42;;
55718;SDS011;41623;46.104;19.656;2022-10-16T06:40:23;3.13;;;2.20;;
55718;SDS011;41623;46.104;19.656;2022-10-16T06:42:48;3.53;;;2.50;;
55718;SDS011;41623;46.104;19.656;2022-10-16T06:45:16;3.17;;;2.25;;
55718;SDS011;41623;46.104;19.656;2022-10-16T06:47:43;2.40;;;1.88;;
55718;SDS011;41623;46.104;19.656;2022-10-16T06:50:08;2.17;;;1.83;;
55718;SDS011;41623;46.104;19.656;2022-10-16T06:52:34;5.70;;;2.05;;
55718;SDS011;41623;46.104;19.656;2022-10-16T06:55:00;4.22;;;2.55;;
55718;SDS011;41623;46.104;19.656;2022-10-16T06:57:26;3.25;;;2.53;;
55718;SDS011;41623;46.104;19.656;2022-10-16T06:59:52;4.13;;;2.47;;
55718;SDS011;41623;46.104;19.656;2022-10-16T07:02:17;3.22;;;1.88;;
55718;SDS011;41623;46.104;19.656;2022-10-16T07:04:43;3.17;;;1.77;;
55718;SDS011;41623;46.104;19.656;2022-10-16T07:07:09;4.68;;;2.10;;
55718;SDS011;41623;46.104;19.656;2022-10-16T07:09:35;2.30;;;1.58;;
55718;SDS011;41623;46.104;19.656;2022-10-16T07:12:00;3.25;;;1.98;;
55718;SDS011;41623;46.104;19.656;2022-10-16T07:14:26;4.28;;;2.33;;
55718;SDS011;41623;46.104;19.656;2022-10-16T07:16:52;2.15;;;1.90;;
55718;SDS011;41623;46.104;19.656;2022-10-16T07:19:18;3.22;;;1.75;;
55718;SDS011;41623;46.104;19.656;2022-10-16T07:21:44;4.70;;;2.47;;
55718;SDS011;41623;46.104;19.656;2022-10-16T07:24:14;4.93;;;1.98;;
55718;SDS011;41623;46.104;19.656;2022-10-16T07:26:41;3.88;;;1.70;;
55718;SDS011;41623;46.104;19.656;2022-10-16T07:29:16;3.67;;;2.15;;
55718;SDS011;41623;46.104;19.656;2022-10-16T07:31:46;3.22;;;1.85;;
55718;SDS011;41623;46.104;19.656;2022-10-16T07:34:13;2.60;;;1.77;;
55718;SDS011;41623;46.104;19.656;2022-10-16T07:36:41;4.93;;;2.10;;
55718;SDS011;41623;46.104;19.656;2022-10-16T07:39:07;1.38;;;1.13;;
55718;SDS011;41623;46.104;19.656;2022-10-16T07:41:33;1.90;;;1.48;;
55718;SDS011;41623;46.104;19.656;2022-10-16T07:44:01;5.30;;;2.55;;
55718;SDS011;41623;46.104;19.656;2022-10-16T07:46:28;4.38;;;2.20;;
55718;SDS011;41623;46.104;19.656;2022-10-16T07:48:54;3.25;;;1.85;;
55718;SDS011;41623;46.104;19.656;2022-10-16T07:51:22;6.18;;;2.20;;
55718;SDS011;41623;46.104;19.656;2022-10-16T07:53:49;1.17;;;1.08;;
55718;SDS011;41623;46.104;19.656;2022-10-16T07:56:16;3.58;;;1.80;;
55718;SDS011;41623;46.104;19.656;2022-10-16T07:58:43;3.30;;;1.92;;
55718;SDS011;41623;46.104;19.656;2022-10-16T08:01:10;2.17;;;1.63;;
55718;SDS011;41623;46.104;19.656;2022-10-16T08:03:38;2.78;;;2.08;;
55718;SDS011;41623;46.104;19.656;2022-10-16T08:06:06;1.67;;;1.42;;
55718;SDS011;41623;46.104;19.656;2022-10-16T08:08:32;2.55;;;1.60;;
55718;SDS011;41623;46.104;19.656;2022-10-16T08:10:58;1.10;;;1.00;;
55718;SDS011;41623;46.104;19.656;2022-10-16T08:13:24;2.20;;;1.70;;
55718;SDS011;41623;46.104;19.656;2022-10-16T08:15:51;2.25;;;1.50;;
55718;SDS011;41623;46.104;19.656;2022-10-16T08:18:18;4.45;;;1.50;;
55718;SDS011;41623;46.104;19.656;2022-10-16T08:20:44;5.38;;;1.08;;
55718;SDS011;41623;46.104;19.656;2022-10-16T08:23:13;1.83;;;1.17;;
55718;SDS011;41623;46.104;19.656;2022-10-16T08:25:39;4.20;;;2.10;;
55718;SDS011;41623;46.104;19.656;2022-10-16T08:28:06;5.97;;;2.10;;
55718;SDS011;41623;46.104;19.656;2022-10-16T08:30:33;3.72;;;2.20;;
55718;SDS011;41623;46.104;19.656;2022-10-16T08:33:00;2.67;;;1.98;;
55718;SDS011;41623;46.104;19.656;2022-10-16T08:35:26;1.45;;;1.25;;
55718;SDS011;41623;46.104;19.656;2022-10-16T08:37:52;4.38;;;1.98;;
55718;SDS011;41623;46.104;19.656;2022-10-16T08:40:19;2.85;;;2.10;;
55718;SDS011;41623;46.104;19.656;2022-10-16T08:50:27;14.02;;;2.85;;
55718;SDS011;41623;46.104;19.656;2022-10-16T08:52:54;1.83;;;1.30;;
55718;SDS011;41623;46.104;19.656;2022-10-16T08:57:59;2.65;;;1.73;;
55718;SDS011;41623;46.104;19.656;2022-10-16T09:00:26;3.17;;;2.25;;
55718;SDS011;41623;46.104;19.656;2022-10-16T09:02:53;3.75;;;2.03;;
55718;SDS011;41623;46.104;19.656;2022-10-16T09:08:09;3.42;;;2.00;;
55718;SDS011;41623;46.104;19.656;2022-10-16T09:10:54;3.38;;;1.40;;
55718;SDS011;41623;46.104;19.656;2022-10-16T09:13:29;2.92;;;1.33;;
55718;SDS011;41623;46.104;19.656;2022-10-16T09:21:56;6.35;;;2.58;;
55718;SDS011;41623;46.104;19.656;2022-10-16T09:24:25;2.47;;;1.65;;
55718;SDS011;41623;46.104;19.656;2022-10-16T09:26:51;5.05;;;2.47;;
55718;SDS011;41623;46.104;19.656;2022-10-16T09:29:18;2.50;;;1.73;;
55718;SDS011;41623;46.104;19.656;2022-10-16T09:31:45;3.35;;;1.83;;
55718;SDS011;41623;46.104;19.656;2022-10-16T09:34:17;2.55;;;1.65;;
55718;SDS011;41623;46.104;19.656;2022-10-16T09:36:44;1.90;;;1.73;;
55718;SDS011;41623;46.104;19.656;2022-10-16T09:39:12;2.17;;;1.25;;
55718;SDS011;41623;46.104;19.656;2022-10-16T09:41:39;2.30;;;1.63;;
55718;SDS011;41623;46.104;19.656;2022-10-16T09:44:40;2.88;;;2.13;;
55718;SDS011;41623;46.104;19.656;2022-10-16T09:47:02;3.25;;;1.77;;
55718;SDS011;41623;46.104;19.656;2022-10-16T09:49:31;2.75;;;1.92;;
55718;SDS011;41623;46.104;19.656;2022-10-16T09:52:04;2.30;;;1.98;;
55718;SDS011;41623;46.104;19.656;2022-10-16T09:54:35;2.65;;;1.90;;
55718;SDS011;41623;46.104;19.656;2022-10-16T09:57:16;2.55;;;2.22;;
55718;SDS011;41623;46.104;19.656;2022-10-16T09:59:48;2.85;;;1.92;;
55718;SDS011;41623;46.104;19.656;2022-10-16T10:02:20;0.90;;;0.90;;
55718;SDS011;41623;46.104;19.656;2022-10-16T10:04:55;4.45;;;1.33;;
55718;SDS011;41623;46.104;19.656;2022-10-16T10:07:42;1.35;;;1.20;;
55718;SDS011;41623;46.104;19.656;2022-10-16T10:10:20;1.63;;;1.33;;
55718;SDS011;41623;46.104;19.656;2022-10-16T10:12:50;2.72;;;1.65;;
55718;SDS011;41623;46.104;19.656;2022-10-16T10:15:16;1.20;;;1.15;;
55718;SDS011;41623;46.104;19.656;2022-10-16T10:17:51;3.33;;;1.75;;
55718;SDS011;41623;46.104;19.656;2022-10-16T10:20:29;3.45;;;1.75;;
55718;SDS011;41623;46.104;19.656;2022-10-16T10:22:59;1.70;;;1.50;;
55718;SDS011;41623;46.104;19.656;2022-10-16T10:30:29;1.15;;;1.05;;
55718;SDS011;41623;46.104;19.656;2022-10-16T10:47:17;3.83;;;1.73;;
55718;SDS011;41623;46.104;19.656;2022-10-16T10:55:33;5.53;;;2.00;;
55718;SDS011;41623;46.104;19.656;2022-10-16T11:06:55;4.63;;;1.55;;
55718;SDS011;41623;46.104;19.656;2022-10-16T11:09:33;2.67;;;1.70;;
55718;SDS011;41623;46.104;19.656;2022-10-16T11:14:43;2.75;;;1.80;;
55718;SDS011;41623;46.104;19.656;2022-10-16T11:17:16;1.80;;;1.60;;
55718;SDS011;41623;46.104;19.656;2022-10-16T11:25:35;6.78;;;2.33;;
55718;SDS011;41623;46.104;19.656;2022-10-16T11:27:40;3.10;;;2.80;;
55718;SDS011;41623;46.104;19.656;2022-10-16T11:30:16;4.10;;;3.10;;
55718;SDS011;41623;46.104;19.656;2022-10-16T11:32:54;4.00;;;2.10;;
55718;SDS011;41623;46.104;19.656;2022-10-16T11:35:24;2.33;;;1.75;;
55718;SDS011;41623;46.104;19.656;2022-10-16T11:37:59;3.40;;;2.00;;
55718;SDS011;41623;46.104;19.656;2022-10-16T11:40:32;2.08;;;1.48;;
55718;SDS011;41623;46.104;19.656;2022-10-16T11:45:50;16.83;;;2.35;;
55718;SDS011;41623;46.104;19.656;2022-10-16T11:48:24;3.50;;;2.33;;
55718;SDS011;41623;46.104;19.656;2022-10-16T11:51:35;2.78;;;1.85;;
55718;SDS011;41623;46.104;19.656;2022-10-16T11:56:56;1.70;;;1.40;;
55718;SDS011;41623;46.104;19.656;2022-10-16T11:59:29;2.15;;;1.80;;
55718;SDS011;41623;46.104;19.656;2022-10-16T12:05:05;3.72;;;2.25;;
55718;SDS011;41623;46.104;19.656;2022-10-16T12:07:39;11.85;;;2.50;;
55718;SDS011;41623;46.104;19.656;2022-10-16T12:10:21;3.63;;;2.03;;
55718;SDS011;41623;46.104;19.656;2022-10-16T12:12:47;2.35;;;1.63;;
55718;SDS011;41623;46.104;19.656;2022-10-16T12:17:46;5.72;;;1.98;;
55718;SDS011;41623;46.104;19.656;2022-10-16T12:23:21;2.63;;;1.80;;
55718;SDS011;41623;46.104;19.656;2022-10-16T12:27:58;2.97;;;1.80;;
55718;SDS011;41623;46.104;19.656;2022-10-16T12:30:26;2.13;;;1.63;;
55718;SDS011;41623;46.104;19.656;2022-10-16T12:33:02;1.52;;;1.38;;
55718;SDS011;41623;46.104;19.656;2022-10-16T12:35:30;2.17;;;1.55;;
55718;SDS011;41623;46.104;19.656;2022-10-16T12:38:04;1.88;;;1.60;;
55718;SDS011;41623;46.104;19.656;2022-10-16T12:40:32;3.00;;;1.45;;
55718;SDS011;41623;46.104;19.656;2022-10-16T12:42:58;2.13;;;1.83;;
55718;SDS011;41623;46.104;19.656;2022-10-16T12:45:31;3.45;;;1.55;;
55718;SDS011;41623;46.104;19.656;2022-10-16T12:50:38;1.17;;;1.02;;
55718;SDS011;41623;46.104;19.656;2022-10-16T12:53:22;4.53;;;1.63;;
55718;SDS011;41623;46.104;19.656;2022-10-16T13:00:55;2.70;;;1.70;;
55718;SDS011;41623;46.104;19.656;2022-10-16T13:03:26;1.75;;;1.50;;
55718;SDS011;41623;46.104;19.656;2022-10-16T13:11:54;1.75;;;1.52;;
55718;SDS011;41623;46.104;19.656;2022-10-16T13:19:56;1.90;;;1.50;;
55718;SDS011;41623;46.104;19.656;2022-10-16T13:25:05;2.78;;;1.80;;
55718;SDS011;41623;46.104;19.656;2022-10-16T13:32:46;2.45;;;1.63;;
55718;SDS011;41623;46.104;19.656;2022-10-16T13:40:23;1.30;;;1.20;;
55718;SDS011;41623;46.104;19.656;2022-10-16T13:42:50;2.47;;;1.17;;
55718;SDS011;41623;46.104;19.656;2022-10-16T13:45:22;2.00;;;1.50;;
55718;SDS011;41623;46.104;19.656;2022-10-16T13:48:00;1.83;;;1.42;;
55718;SDS011;41623;46.104;19.656;2022-10-16T13:50:28;2.15;;;1.42;;
55718;SDS011;41623;46.104;19.656;2022-10-16T13:53:03;2.17;;;1.50;;
55718;SDS011;41623;46.104;19.656;2022-10-16T13:55:29;1.75;;;1.42;;
55718;SDS011;41623;46.104;19.656;2022-10-16T13:58:12;1.45;;;1.35;;
55718;SDS011;41623;46.104;19.656;2022-10-16T14:00:38;3.17;;;1.80;;
55718;SDS011;41623;46.104;19.656;2022-10-16T14:03:13;2.53;;;1.85;;
55718;SDS011;41623;46.104;19.656;2022-10-16T14:05:45;1.52;;;1.30;;
55718;SDS011;41623;46.104;19.656;2022-10-16T14:10:40;1.35;;;1.23;;
55718;SDS011;41623;46.104;19.656;2022-10-16T14:13:06;2.13;;;1.40;;
55718;SDS011;41623;46.104;19.656;2022-10-16T14:15:38;2.03;;;1.73;;
55718;SDS011;41623;46.104;19.656;2022-10-16T14:18:04;1.67;;;1.55;;
55718;SDS011;41623;46.104;19.656;2022-10-16T14:20:31;2.05;;;1.55;;
55718;SDS011;41623;46.104;19.656;2022-10-16T14:23:03;1.48;;;1.38;;
55718;SDS011;41623;46.104;19.656;2022-10-16T14:25:30;1.90;;;1.42;;
55718;SDS011;41623;46.104;19.656;2022-10-16T14:28:01;2.25;;;1.52;;
55718;SDS011;41623;46.104;19.656;2022-10-16T14:31:16;1.95;;;1.35;;
55718;SDS011;41623;46.104;19.656;2022-10-16T14:33:45;2.03;;;1.58;;
55718;SDS011;41623;46.104;19.656;2022-10-16T14:36:14;2.40;;;1.48;;
55718;SDS011;41623;46.104;19.656;2022-10-16T14:41:28;1.52;;;1.35;;
55718;SDS011;41623;46.104;19.656;2022-10-16T14:44:05;2.58;;;1.45;;
55718;SDS011;41623;46.104;19.656;2022-10-16T14:46:37;3.25;;;1.73;;
55718;SDS011;41623;46.104;19.656;2022-10-16T14:51:41;1.35;;;1.25;;
55718;SDS011;41623;46.104;19.656;2022-10-16T14:54:09;1.25;;;1.10;;
55718;SDS011;41623;46.104;19.656;2022-10-16T14:59:14;3.03;;;1.45;;
55718;SDS011;41623;46.104;19.656;2022-10-16T15:02:00;2.58;;;1.80;;
55718;SDS011;41623;46.104;19.656;2022-10-16T15:04:41;2.40;;;1.67;;
55718;SDS011;41623;46.104;19.656;2022-10-16T15:07:07;4.50;;;2.20;;
55718;SDS011;41623;46.104;19.656;2022-10-16T15:09:33;3.22;;;2.58;;
55718;SDS011;41623;46.104;19.656;2022-10-16T15:11:59;1.80;;;1.48;;
55718;SDS011;41623;46.104;19.656;2022-10-16T15:14:24;2.63;;;1.85;;
55718;SDS011;41623;46.104;19.656;2022-10-16T15:16:50;6.95;;;1.65;;
55718;SDS011;41623;46.104;19.656;2022-10-16T15:19:16;2.97;;;1.50;;
55718;SDS011;41623;46.104;19.656;2022-10-16T15:21:41;2.63;;;1.88;;
55718;SDS011;41623;46.104;19.656;2022-10-16T15:24:09;2.53;;;1.55;;
55718;SDS011;41623;46.104;19.656;2022-10-16T15:26:38;4.03;;;2.10;;
55718;SDS011;41623;46.104;19.656;2022-10-16T15:29:04;3.25;;;1.65;;
55718;SDS011;41623;46.104;19.656;2022-10-16T15:31:30;4.57;;;2.15;;
55718;SDS011;41623;46.104;19.656;2022-10-16T15:33:56;3.05;;;2.00;;
55718;SDS011;41623;46.104;19.656;2022-10-16T15:36:30;2.60;;;1.67;;
55718;SDS011;41623;46.104;19.656;2022-10-16T15:39:05;6.38;;;2.85;;
55718;SDS011;41623;46.104;19.656;2022-10-16T15:41:37;2.38;;;1.70;;
55718;SDS011;41623;46.104;19.656;2022-10-16T15:44:03;2.03;;;1.35;;
55718;SDS011;41623;46.104;19.656;2022-10-16T15:46:29;3.97;;;1.85;;
55718;SDS011;41623;46.104;19.656;2022-10-16T15:48:56;4.43;;;2.05;;
55718;SDS011;41623;46.104;19.656;2022-10-16T15:51:23;3.78;;;1.85;;
55718;SDS011;41623;46.104;19.656;2022-10-16T15:53:49;6.32;;;2.17;;
55718;SDS011;41623;46.104;19.656;2022-10-16T15:56:17;2.78;;;1.90;;
55718;SDS011;41623;46.104;19.656;2022-10-16T15:58:43;6.38;;;2.25;;
55718;SDS011;41623;46.104;19.656;2022-10-16T16:01:09;1.98;;;1.75;;
55718;SDS011;41623;46.104;19.656;2022-10-16T16:03:37;2.95;;;2.10;;
55718;SDS011;41623;46.104;19.656;2022-10-16T16:06:06;4.80;;;2.55;;
55718;SDS011;41623;46.104;19.656;2022-10-16T16:08:34;4.60;;;2.22;;
55718;SDS011;41623;46.104;19.656;2022-10-16T16:11:01;5.07;;;2.28;;
55718;SDS011;41623;46.104;19.656;2022-10-16T16:13:32;7.20;;;2.10;;
55718;SDS011;41623;46.104;19.656;2022-10-16T16:15:59;3.80;;;2.03;;
55718;SDS011;41623;46.104;19.656;2022-10-16T16:18:25;4.00;;;2.17;;
55718;SDS011;41623;46.104;19.656;2022-10-16T16:20:51;4.95;;;2.58;;
55718;SDS011;41623;46.104;19.656;2022-10-16T16:23:17;7.15;;;3.17;;
55718;SDS011;41623;46.104;19.656;2022-10-16T16:25:44;5.32;;;3.60;;
55718;SDS011;41623;46.104;19.656;2022-10-16T16:28:10;8.65;;;2.55;;
55718;SDS011;41623;46.104;19.656;2022-10-16T16:30:39;3.65;;;2.40;;
55718;SDS011;41623;46.104;19.656;2022-10-16T16:33:06;7.97;;;3.35;;
55718;SDS011;41623;46.104;19.656;2022-10-16T16:35:32;10.48;;;2.92;;
55718;SDS011;41623;46.104;19.656;2022-10-16T16:37:57;9.15;;;3.50;;
55718;SDS011;41623;46.104;19.656;2022-10-16T16:40:23;6.57;;;3.63;;
55718;SDS011;41623;46.104;19.656;2022-10-16T16:42:49;9.63;;;3.95;;
55718;SDS011;41623;46.104;19.656;2022-10-16T16:45:14;8.23;;;3.47;;
55718;SDS011;41623;46.104;19.656;2022-10-16T16:47:40;5.50;;;3.35;;
55718;SDS011;41623;46.104;19.656;2022-10-16T16:50:06;8.15;;;3.67;;
55718;SDS011;41623;46.104;19.656;2022-10-16T16:52:33;7.78;;;3.55;;
55718;SDS011;41623;46.104;19.656;2022-10-16T16:55:00;8.73;;;4.93;;
55718;SDS011;41623;46.104;19.656;2022-10-16T16:57:26;8.73;;;4.10;;
55718;SDS011;41623;46.104;19.656;2022-10-16T16:59:52;11.32;;;5.32;;
55718;SDS011;41623;46.104;19.656;2022-10-16T17:02:18;8.95;;;4.55;;